createdAt,value
2019-05-13T00:00:24.481Z,10.30
2019-05-13T00:02:54.389Z,10.30
2019-05-13T00:05:23.410Z,10.30
2019-05-13T00:07:53.989Z,10.30
2019-05-13T00:10:24.338Z,10.20
2019-05-13T00:12:54.008Z,10.20
2019-05-13T00:15:24.269Z,10.20
2019-05-13T00:17:54.401Z,10.20
2019-05-13T00:20:24.101Z,10.20
2019-05-13T00:22:53.839Z,10.20
2019-05-13T00:25:24.174Z,10.10
2019-05-13T00:27:53.676Z,10.10
2019-05-13T00:30:23.518Z,10.20
2019-05-13T00:32:54.454Z,10.20
2019-05-13T00:35:23.302Z,10.20
2019-05-13T00:37:54.167Z,10.20
2019-05-13T00:40:24.050Z,10.20
2019-05-13T00:42:54.527Z,10.20
2019-05-13T00:45:24.465Z,10.20
2019-05-13T00:47:53.721Z,10.20
2019-05-13T00:50:24.070Z,10.20
2019-05-13T00:52:53.583Z,10.20
2019-05-13T00:55:23.789Z,10.30
2019-05-13T00:57:54.113Z,10.30
2019-05-13T01:00:24.280Z,10.30
2019-05-13T01:02:53.355Z,10.30
2019-05-13T01:05:23.425Z,10.20
2019-05-13T01:07:53.741Z,10.20
2019-05-13T01:10:23.766Z,10.20
2019-05-13T01:12:53.932Z,10.20
2019-05-13T01:15:24.587Z,10.30
2019-05-13T01:17:53.479Z,10.20
2019-05-13T01:20:23.582Z,10.30
2019-05-13T01:22:54.131Z,10.20
2019-05-13T01:25:24.396Z,10.20
2019-05-13T01:27:53.757Z,10.10
2019-05-13T01:30:23.789Z,10.10
2019-05-13T01:32:54.020Z,10.00
2019-05-13T01:35:23.649Z,9.90
2019-05-13T01:37:53.842Z,9.90
2019-05-13T01:40:23.916Z,9.90
2019-05-13T01:42:54.198Z,9.90
2019-05-13T01:45:24.029Z,9.80
2019-05-13T01:47:54.433Z,9.80
2019-05-13T01:50:24.150Z,9.70
2019-05-13T01:52:53.358Z,9.70
2019-05-13T01:55:24.318Z,9.70
2019-05-13T01:57:53.380Z,9.70
2019-05-13T02:00:24.197Z,9.70
2019-05-13T02:02:54.463Z,9.60
2019-05-13T02:05:24.207Z,9.60
2019-05-13T02:07:57.675Z,9.60
2019-05-13T02:10:41.447Z,9.60
2019-05-13T02:13:10.031Z,9.60
2019-05-13T02:15:38.785Z,9.60
2019-05-13T02:18:07.402Z,9.60
2019-05-13T02:20:36.054Z,9.60
2019-05-13T02:23:04.738Z,9.60
2019-05-13T02:25:34.045Z,9.60
2019-05-13T02:28:09.084Z,9.60
2019-05-13T02:30:34.991Z,9.60
2019-05-13T02:33:03.565Z,9.60
2019-05-13T02:35:32.747Z,9.60
2019-05-13T02:38:17.437Z,9.60
2019-05-13T02:40:32.709Z,9.60
2019-05-13T02:43:02.911Z,9.60
2019-05-13T02:45:33.435Z,9.60
2019-05-13T02:48:03.365Z,9.60
2019-05-13T02:50:33.923Z,9.60
2019-05-13T02:53:02.835Z,9.60
2019-05-13T02:55:32.922Z,9.70
2019-05-13T02:58:03.260Z,9.70
2019-05-13T03:00:33.023Z,9.70
2019-05-13T03:03:03.211Z,9.70
2019-05-13T03:05:32.333Z,9.80
2019-05-13T03:08:03.397Z,9.80
2019-05-13T03:10:33.068Z,9.80
2019-05-13T03:13:03.586Z,9.90
2019-05-13T03:15:33.696Z,9.90
2019-05-13T03:18:04.010Z,10.10
2019-05-13T03:20:33.487Z,10.00
2019-05-13T03:23:03.244Z,10.10
2019-05-13T03:25:33.261Z,10.10
2019-05-13T03:28:03.141Z,10.10
2019-05-13T03:30:35.393Z,10.10
2019-05-13T03:33:10.161Z,10.20
2019-05-13T03:35:36.633Z,10.30
2019-05-13T03:38:03.831Z,10.30
2019-05-13T03:40:33.712Z,10.30
2019-05-13T03:43:03.054Z,10.30
2019-05-13T03:45:33.971Z,10.30
2019-05-13T03:48:04.229Z,10.30
2019-05-13T03:50:34.549Z,10.30
2019-05-13T03:53:03.310Z,10.40
2019-05-13T03:55:33.087Z,10.40
2019-05-13T03:58:03.221Z,10.50
2019-05-13T04:00:32.652Z,10.60
2019-05-13T04:03:03.326Z,10.70
2019-05-13T04:05:33.368Z,10.80
2019-05-13T04:08:03.317Z,10.90
2019-05-13T04:10:33.368Z,11.00
2019-05-13T04:13:03.757Z,10.90
2019-05-13T04:15:33.006Z,11.00
2019-05-13T04:18:02.947Z,11.10
2019-05-13T04:20:33.315Z,10.90
2019-05-13T04:23:03.115Z,10.90
2019-05-13T04:25:32.412Z,10.80
2019-05-13T04:28:03.332Z,10.90
2019-05-13T04:30:33.091Z,10.80
2019-05-13T04:33:02.717Z,10.80
2019-05-13T04:35:33.322Z,10.70
2019-05-13T04:38:03.480Z,10.60
2019-05-13T04:40:33.344Z,10.60
2019-05-13T04:43:02.859Z,10.50
2019-05-13T04:45:32.927Z,10.60
2019-05-13T04:48:03.337Z,10.50
2019-05-13T04:50:33.069Z,10.40
2019-05-13T04:53:03.151Z,10.30
2019-05-13T04:55:33.276Z,10.30
2019-05-13T04:58:03.494Z,10.40
2019-05-13T05:00:49.677Z,10.30
2019-05-13T05:03:33.432Z,10.30
2019-05-13T05:05:59.159Z,10.20
2019-05-13T05:08:36.375Z,10.20
2019-05-13T05:11:24.759Z,10.10
2019-05-13T05:14:05.294Z,10.00
2019-05-13T05:16:45.699Z,10.10
2019-05-13T05:19:37.169Z,10.10
2019-05-13T05:22:13.428Z,9.90
2019-05-13T05:24:52.016Z,9.90
2019-05-13T05:27:51.427Z,9.90
2019-05-13T05:30:56.641Z,10.00
2019-05-13T05:33:56.182Z,9.80
2019-05-13T05:36:33.545Z,9.90
2019-05-13T05:39:12.360Z,9.90
2019-05-13T05:41:43.536Z,9.90
2019-05-13T05:44:13.397Z,9.90
2019-05-13T05:46:42.911Z,10.00
2019-05-13T05:49:12.715Z,9.70
2019-05-13T05:51:42.987Z,9.60
2019-05-13T05:54:14.458Z,9.60
2019-05-13T05:56:42.274Z,9.60
2019-05-13T05:59:12.450Z,9.50
2019-05-13T06:01:45.108Z,9.40
2019-05-13T06:04:13.750Z,9.40
2019-05-13T06:06:42.485Z,9.50
2019-05-13T06:09:12.187Z,9.50
2019-05-13T06:11:41.794Z,9.40
2019-05-13T06:14:11.231Z,9.50
2019-05-13T06:16:42.381Z,9.50
2019-05-13T06:19:12.098Z,9.50
2019-05-13T06:21:42.076Z,9.50
2019-05-13T06:24:11.771Z,9.50
2019-05-13T06:26:41.980Z,9.40
2019-05-13T06:29:11.678Z,9.30
2019-05-13T06:31:41.919Z,9.30
2019-05-13T06:34:12.579Z,9.30
2019-05-13T06:36:41.898Z,9.20
2019-05-13T06:39:12.312Z,9.30
2019-05-13T06:41:41.768Z,9.30
2019-05-13T06:44:12.188Z,9.40
2019-05-13T06:46:42.329Z,9.20
2019-05-13T06:49:12.188Z,9.10
2019-05-13T06:51:41.752Z,8.90
2019-05-13T06:54:11.299Z,8.80
2019-05-13T06:56:42.644Z,8.70
2019-05-13T06:59:11.844Z,8.60
2019-05-13T07:01:42.357Z,8.60
2019-05-13T07:04:11.718Z,8.40
2019-05-13T07:06:41.790Z,8.30
2019-05-13T07:09:12.028Z,8.20
2019-05-13T07:11:41.663Z,8.20
2019-05-13T07:14:12.631Z,8.10
2019-05-13T07:16:42.136Z,7.90
2019-05-13T07:19:11.746Z,7.90
2019-05-13T07:21:41.697Z,7.80
2019-05-13T07:24:12.669Z,7.90
2019-05-13T07:26:41.913Z,7.80
2019-05-13T07:29:12.764Z,7.90
2019-05-13T07:31:42.236Z,7.90
2019-05-13T07:34:11.593Z,7.80
2019-05-13T07:36:42.178Z,7.90
2019-05-13T07:39:11.918Z,8.00
2019-05-13T07:41:43.186Z,7.90
2019-05-13T07:44:11.836Z,7.90
2019-05-13T07:46:42.631Z,8.00
2019-05-13T07:49:11.987Z,7.90
2019-05-13T07:51:42.048Z,8.00
2019-05-13T07:54:11.466Z,8.00
2019-05-13T07:56:42.593Z,8.00
2019-05-13T07:59:12.233Z,8.00
2019-05-13T08:01:41.736Z,8.00
2019-05-13T08:04:22.113Z,8.10
2019-05-13T08:06:41.701Z,8.10
2019-05-13T08:09:12.822Z,8.10
2019-05-13T08:11:59.957Z,8.10
2019-05-13T08:14:12.343Z,8.10
2019-05-13T08:16:42.727Z,8.10
2019-05-13T08:19:12.439Z,8.10
2019-05-13T08:21:41.901Z,8.20
2019-05-13T08:24:11.928Z,8.20
2019-05-13T08:26:44.964Z,8.20
2019-05-13T08:29:11.533Z,8.20
2019-05-13T08:31:41.227Z,8.20
2019-05-13T08:34:11.789Z,8.10
2019-05-13T08:36:42.606Z,8.10
2019-05-13T08:39:12.681Z,8.10
2019-05-13T08:41:42.297Z,8.10
2019-05-13T08:44:12.333Z,8.10
2019-05-13T08:46:41.553Z,8.20
2019-05-13T08:49:11.937Z,8.20
2019-05-13T08:51:42.209Z,8.10
2019-05-13T08:54:11.636Z,8.00
2019-05-13T08:56:41.601Z,8.00
2019-05-13T08:59:11.490Z,8.00
2019-05-13T09:01:42.670Z,7.90
2019-05-13T09:04:11.812Z,7.90
2019-05-13T09:06:42.025Z,7.80
2019-05-13T09:09:11.658Z,7.90
2019-05-13T09:11:42.182Z,7.90
2019-05-13T09:14:11.285Z,7.90
2019-05-13T09:16:41.928Z,7.90
2019-05-13T09:19:15.777Z,8.00
2019-05-13T09:21:42.456Z,8.00
2019-05-13T09:24:21.738Z,8.10
2019-05-13T09:26:42.097Z,8.00
2019-05-13T09:31:41.751Z,7.90
2019-05-13T09:34:12.208Z,8.00
2019-05-13T09:36:41.753Z,8.10
2019-05-13T09:39:12.674Z,8.20
2019-05-13T09:41:44.257Z,8.10
2019-05-13T09:44:12.408Z,8.10
2019-05-13T09:46:42.551Z,8.10
2019-05-13T09:49:19.124Z,8.10
2019-05-13T09:51:41.856Z,8.00
2019-05-13T09:54:11.676Z,7.90
2019-05-13T09:56:41.369Z,8.00
2019-05-13T09:59:11.729Z,7.90
2019-05-13T10:01:42.746Z,7.90
2019-05-13T10:04:11.949Z,7.90
2019-05-13T10:06:42.102Z,7.90
2019-05-13T10:09:12.639Z,7.80
2019-05-13T10:11:41.392Z,7.90
2019-05-13T10:14:11.602Z,7.90
2019-05-13T10:16:42.589Z,7.90
2019-05-13T10:19:12.721Z,7.90
2019-05-13T10:21:42.279Z,8.00
2019-05-13T10:24:12.583Z,8.00
2019-05-13T10:26:42.868Z,8.00
2019-05-13T10:29:12.302Z,8.00
2019-05-13T10:31:42.020Z,8.00
2019-05-13T10:34:14.056Z,7.90
2019-05-13T10:36:42.387Z,7.90
2019-05-13T10:39:12.050Z,7.80
2019-05-13T10:41:42.259Z,7.80
2019-05-13T10:44:12.105Z,7.70
2019-05-13T10:46:42.547Z,7.70
2019-05-13T10:49:12.242Z,7.70
2019-05-13T10:51:41.937Z,7.70
2019-05-13T10:54:10.693Z,7.70
2019-05-13T10:56:39.365Z,7.70
2019-05-13T10:59:08.175Z,7.60
2019-05-13T11:01:36.870Z,7.60
2019-05-13T11:04:05.535Z,7.70
2019-05-13T11:06:34.274Z,7.60
2019-05-13T11:09:05.082Z,7.60
2019-05-13T11:11:33.782Z,7.60
2019-05-13T11:14:10.009Z,7.70
2019-05-13T11:16:32.647Z,7.60
2019-05-13T11:19:02.828Z,7.70
2019-05-13T11:21:32.116Z,7.70
2019-05-13T11:24:03.272Z,7.70
2019-05-13T11:26:36.116Z,7.60
2019-05-13T11:29:02.905Z,7.70
2019-05-13T11:31:32.921Z,7.70
2019-05-13T11:34:02.096Z,7.60
2019-05-13T11:36:33.345Z,7.60
2019-05-13T11:39:02.985Z,7.70
2019-05-13T11:41:32.603Z,7.60
2019-05-13T11:44:12.548Z,7.70
2019-05-13T11:46:33.147Z,7.60
2019-05-13T11:49:02.682Z,7.60
2019-05-13T11:51:32.344Z,7.60
2019-05-13T11:54:02.424Z,7.60
2019-05-13T11:56:33.715Z,7.60
2019-05-13T11:59:04.220Z,7.60
2019-05-13T12:01:33.464Z,7.50
2019-05-13T12:04:03.033Z,7.50
2019-05-13T12:06:33.877Z,7.50
2019-05-13T12:09:03.241Z,7.50
2019-05-13T12:11:33.350Z,7.50
2019-05-13T12:14:02.335Z,7.60
2019-05-13T12:16:34.772Z,7.50
2019-05-13T12:19:03.471Z,7.50
2019-05-13T12:21:32.321Z,7.50
2019-05-13T12:24:10.191Z,7.50
2019-05-13T12:26:33.267Z,7.50
2019-05-13T12:29:02.852Z,7.50
2019-05-13T12:31:33.576Z,7.50
2019-05-13T12:34:03.639Z,7.60
2019-05-13T12:36:32.914Z,7.60
2019-05-13T12:39:01.773Z,7.60
2019-05-13T12:41:32.967Z,7.60
2019-05-13T12:44:01.798Z,7.60
2019-05-13T12:46:30.808Z,7.60
2019-05-13T12:48:59.427Z,7.60
2019-05-13T12:51:28.285Z,7.60
2019-05-13T12:53:56.995Z,7.60
2019-05-13T12:56:25.578Z,7.60
2019-05-13T12:58:54.287Z,7.70
2019-05-13T13:01:24.010Z,7.70
2019-05-13T13:03:53.217Z,7.70
2019-05-13T13:06:32.292Z,7.70
2019-05-13T13:08:52.272Z,7.60
2019-05-13T13:11:22.834Z,7.70
2019-05-13T13:13:59.678Z,7.70
2019-05-13T13:16:21.672Z,7.80
2019-05-13T13:18:52.123Z,7.70
2019-05-13T13:21:24.404Z,7.70
2019-05-13T13:23:50.827Z,7.80
2019-05-13T13:26:21.748Z,7.80
2019-05-13T13:28:55.108Z,7.80
2019-05-13T13:31:24.602Z,7.80
2019-05-13T13:33:53.934Z,7.80
2019-05-13T13:36:23.923Z,7.80
2019-05-13T13:38:56.175Z,7.70
2019-05-13T13:41:22.904Z,7.70
2019-05-13T13:43:53.776Z,7.70
2019-05-13T13:46:33.643Z,7.70
2019-05-13T13:48:55.387Z,7.70
2019-05-13T13:51:26.643Z,7.60
2019-05-13T13:53:56.397Z,7.60
2019-05-13T13:56:25.352Z,7.70
2019-05-13T13:58:53.312Z,7.70
2019-05-13T14:01:26.974Z,7.70
2019-05-13T14:03:53.055Z,7.60
2019-05-13T14:06:25.162Z,8.00
2019-05-13T14:07:22.206Z,7.70
2019-05-13T14:08:52.502Z,7.70
2019-05-13T14:11:23.156Z,7.70
2019-05-13T14:13:51.860Z,7.80
2019-05-13T14:16:29.495Z,7.70
2019-05-13T14:18:52.321Z,7.80
2019-05-13T14:21:21.612Z,7.80
2019-05-13T14:23:51.979Z,7.70
2019-05-13T14:26:22.146Z,7.70
2019-05-13T14:28:53.668Z,7.70
2019-05-13T14:31:21.576Z,7.70
2019-05-13T14:33:52.143Z,7.70
2019-05-13T14:36:23.039Z,7.70
2019-05-13T14:38:52.677Z,7.70
2019-05-13T14:41:21.984Z,7.80
2019-05-13T14:43:51.715Z,7.80
2019-05-13T14:46:25.200Z,7.80
2019-05-13T14:48:50.971Z,7.80
2019-05-13T14:51:21.832Z,7.80
2019-05-13T14:53:52.014Z,7.70
2019-05-13T14:56:22.151Z,7.70
2019-05-13T14:58:52.039Z,7.70
2019-05-13T15:01:22.726Z,7.80
2019-05-13T15:03:52.010Z,7.80
2019-05-13T15:06:22.088Z,7.80
2019-05-13T15:08:52.586Z,7.80
2019-05-13T15:11:22.043Z,7.90
2019-05-13T15:13:51.891Z,7.80
2019-05-13T15:16:22.327Z,7.80
2019-05-13T15:18:52.500Z,7.80
2019-05-13T15:21:21.516Z,7.80
2019-05-13T15:23:51.820Z,7.80
2019-05-13T15:26:22.222Z,7.80
2019-05-13T15:28:51.860Z,7.80
2019-05-13T15:31:22.104Z,7.70
2019-05-13T15:33:52.372Z,7.80
2019-05-13T15:36:22.619Z,7.70
2019-05-13T15:38:51.960Z,7.70
2019-05-13T15:41:20.979Z,7.80
2019-05-13T15:43:51.923Z,7.80
2019-05-13T15:46:21.963Z,7.70
2019-05-13T15:48:51.409Z,7.80
2019-05-13T15:51:22.138Z,7.80
2019-05-13T15:53:51.765Z,7.80
2019-05-13T15:56:22.331Z,7.70
2019-05-13T15:58:52.882Z,7.70
2019-05-13T16:01:22.947Z,7.80
2019-05-13T16:03:52.488Z,7.80
2019-05-13T16:06:21.759Z,7.80
2019-05-13T16:08:51.892Z,7.70
2019-05-13T16:11:22.025Z,7.80
2019-05-13T16:13:51.819Z,7.70
2019-05-13T16:16:22.174Z,7.80
2019-05-13T16:18:51.603Z,7.80
2019-05-13T16:21:20.534Z,7.70
2019-05-13T16:23:51.398Z,7.80
2019-05-13T16:26:19.573Z,7.80
2019-05-13T16:28:48.281Z,7.80
2019-05-13T16:31:17.011Z,7.80
2019-05-13T16:33:45.613Z,7.80
2019-05-13T16:36:14.336Z,7.70
2019-05-13T16:38:42.964Z,7.70
2019-05-13T16:41:12.406Z,7.70
2019-05-13T16:43:42.633Z,7.70
2019-05-13T16:46:12.203Z,7.70
2019-05-13T16:48:41.617Z,7.80
2019-05-13T16:51:12.379Z,7.70
2019-05-13T16:53:42.107Z,7.80
2019-05-13T16:56:25.406Z,7.70
2019-05-13T16:58:41.870Z,7.70
2019-05-13T17:01:11.768Z,7.70
2019-05-13T17:03:41.399Z,7.70
2019-05-13T17:06:12.449Z,7.70
2019-05-13T17:08:42.464Z,7.70
2019-05-13T17:11:11.791Z,7.70
2019-05-13T17:13:42.184Z,7.60
2019-05-13T17:16:11.143Z,7.70
2019-05-13T17:18:41.754Z,7.70
2019-05-13T17:21:10.092Z,7.60
2019-05-13T17:23:38.694Z,7.70
2019-05-13T17:26:07.355Z,7.60
2019-05-13T17:28:36.073Z,7.60
2019-05-13T17:31:04.692Z,7.60
2019-05-13T17:33:33.327Z,7.60
2019-05-13T17:36:02.216Z,7.50
2019-05-13T17:38:32.268Z,7.50
2019-05-13T17:41:02.213Z,7.60
2019-05-13T17:43:31.918Z,7.60
2019-05-13T17:46:01.155Z,7.50
2019-05-13T17:48:32.802Z,7.50
2019-05-13T17:51:01.442Z,7.60
2019-05-13T17:53:32.395Z,7.50
2019-05-13T17:56:02.381Z,7.50
2019-05-13T17:58:31.394Z,7.50
2019-05-13T18:01:01.727Z,7.50
2019-05-13T18:03:32.090Z,7.60
2019-05-13T18:06:02.397Z,7.50
2019-05-13T18:08:32.643Z,7.50
2019-05-13T18:11:02.552Z,7.50
2019-05-13T18:13:34.786Z,7.50
2019-05-13T18:16:03.652Z,7.50
2019-05-13T18:18:43.209Z,7.40
2019-05-13T18:21:02.629Z,7.40
2019-05-13T18:23:31.266Z,7.40
2019-05-13T18:26:01.943Z,7.40
2019-05-13T18:28:31.466Z,7.40
2019-05-13T18:31:01.724Z,7.40
2019-05-13T18:33:31.928Z,7.30
2019-05-13T18:36:01.786Z,7.30
2019-05-13T18:38:31.312Z,7.20
2019-05-13T18:41:01.835Z,7.30
2019-05-13T18:43:32.090Z,7.30
2019-05-13T18:46:02.074Z,7.30
2019-05-13T18:48:32.263Z,7.20
2019-05-13T18:51:01.516Z,7.20
2019-05-13T18:53:32.063Z,7.20
2019-05-13T18:56:01.926Z,7.20
2019-05-13T18:58:31.609Z,7.10
2019-05-13T19:01:01.312Z,7.20
2019-05-13T19:03:32.274Z,7.20
2019-05-13T19:06:00.800Z,7.20
2019-05-13T19:08:31.860Z,7.10
2019-05-13T19:11:01.240Z,7.10
2019-05-13T19:13:32.251Z,7.20
2019-05-13T19:16:02.243Z,7.20
2019-05-13T19:18:31.978Z,7.10
2019-05-13T19:21:01.944Z,7.10
2019-05-13T19:23:31.445Z,7.10
2019-05-13T19:26:01.944Z,7.10
2019-05-13T19:28:31.776Z,7.10
2019-05-13T19:31:02.310Z,7.10
2019-05-13T19:33:31.121Z,7.10
2019-05-13T19:36:01.401Z,7.10
2019-05-13T19:38:31.866Z,7.10
2019-05-13T19:41:01.871Z,7.10
2019-05-13T19:43:31.439Z,7.10
2019-05-13T19:46:01.600Z,7.10
2019-05-13T19:48:32.641Z,7.10
2019-05-13T19:51:01.517Z,7.00
2019-05-13T19:53:31.906Z,7.00
2019-05-13T19:56:01.451Z,6.90
2019-05-13T19:58:32.370Z,6.90
2019-05-13T20:01:00.649Z,6.90
2019-05-13T20:03:31.526Z,6.90
2019-05-13T20:06:01.905Z,6.80
2019-05-13T20:08:31.824Z,6.80
2019-05-13T20:11:02.144Z,6.80
2019-05-13T20:13:30.773Z,6.80
2019-05-13T20:16:01.407Z,6.80
2019-05-13T20:18:31.807Z,6.90
2019-05-13T20:21:01.251Z,6.80
2019-05-13T20:23:32.012Z,6.80
2019-05-13T20:26:00.467Z,6.80
2019-05-13T20:28:31.452Z,6.80
2019-05-13T20:31:01.651Z,6.80
2019-05-13T20:33:31.942Z,6.80
2019-05-13T20:36:01.606Z,6.80
2019-05-13T20:38:31.736Z,6.80
2019-05-13T20:41:01.284Z,6.70
2019-05-13T20:43:32.533Z,6.80
2019-05-13T20:46:01.942Z,6.80
2019-05-13T20:48:32.025Z,6.80
2019-05-13T20:51:02.520Z,6.80
2019-05-13T20:53:31.210Z,6.80
2019-05-13T20:56:01.704Z,6.80
2019-05-13T20:58:31.900Z,6.80
2019-05-13T21:01:02.421Z,6.80
2019-05-13T21:03:31.606Z,6.80
2019-05-13T21:06:00.438Z,6.80
2019-05-13T21:08:29.087Z,6.70
2019-05-13T21:10:57.649Z,6.70
2019-05-13T21:13:26.213Z,6.70
2019-05-13T21:15:54.850Z,6.70
2019-05-13T21:18:23.443Z,6.70
2019-05-13T21:20:52.315Z,6.70
2019-05-13T21:23:21.762Z,6.70
2019-05-13T21:25:51.079Z,6.70
2019-05-13T21:28:21.849Z,6.70
2019-05-13T21:30:51.420Z,6.60
2019-05-13T21:33:22.173Z,6.70
2019-05-13T21:35:51.258Z,6.70
2019-05-13T21:38:22.129Z,6.70
2019-05-13T21:40:52.052Z,6.70
2019-05-13T21:43:21.629Z,6.60
2019-05-13T21:45:52.355Z,6.70
2019-05-13T21:48:21.703Z,6.70
2019-05-13T21:50:51.560Z,6.70
2019-05-13T21:53:24.139Z,6.70
2019-05-13T21:55:52.070Z,6.70
2019-05-13T21:58:22.213Z,6.70
2019-05-13T22:00:52.198Z,6.70
2019-05-13T22:03:20.965Z,6.80
2019-05-13T22:05:51.584Z,6.70
2019-05-13T22:08:21.599Z,6.70
2019-05-13T22:10:52.448Z,6.70
2019-05-13T22:13:21.143Z,6.70
2019-05-13T22:15:52.145Z,6.80
2019-05-13T22:18:20.159Z,6.70
2019-05-13T22:20:51.209Z,6.80
2019-05-13T22:23:19.162Z,6.80
2019-05-13T22:25:47.833Z,6.80
2019-05-13T22:28:16.543Z,6.80
2019-05-13T22:30:45.205Z,6.80
2019-05-13T22:33:13.912Z,6.70
2019-05-13T22:35:42.582Z,6.80
2019-05-13T22:38:12.234Z,6.80
2019-05-13T22:40:41.962Z,6.80
2019-05-13T22:43:12.137Z,6.80
2019-05-13T22:45:41.889Z,6.80
2019-05-13T22:48:12.100Z,6.80
2019-05-13T22:50:42.610Z,6.90
2019-05-13T22:53:12.018Z,6.80
2019-05-13T22:55:41.850Z,6.80
2019-05-13T22:58:10.706Z,6.80
2019-05-13T23:00:39.366Z,6.80
2019-05-13T23:03:07.957Z,6.80
2019-05-13T23:05:36.700Z,6.80
2019-05-13T23:08:05.443Z,6.80
2019-05-13T23:10:34.098Z,6.80
2019-05-13T23:13:02.699Z,6.80
2019-05-13T23:15:31.458Z,6.80
2019-05-13T23:18:01.216Z,6.80
2019-05-13T23:20:31.807Z,6.80
2019-05-13T23:23:01.282Z,6.80
2019-05-13T23:25:31.939Z,6.80
2019-05-13T23:28:00.288Z,6.80
2019-05-13T23:30:31.077Z,6.80
2019-05-13T23:32:59.384Z,6.80
2019-05-13T23:35:28.063Z,6.80
2019-05-13T23:37:56.668Z,6.80
2019-05-13T23:40:25.376Z,6.80
2019-05-13T23:42:54.115Z,6.70
2019-05-13T23:45:22.816Z,6.70
2019-05-13T23:47:51.464Z,6.80
2019-05-13T23:50:21.560Z,6.80
2019-05-13T23:52:51.173Z,6.80
2019-05-13T23:55:20.016Z,6.80
2019-05-13T23:57:48.705Z,6.80
